Flight Track Log - Related Links

Times and Time Zones

All times are in EDT time to prevent confusion due to time zone crossing. See the G-EZBG flight status page for this flight to view local times or setup timezone preferences in your user account.

Time Position Orientation Groundspeed Altitude Reporting Facility
EDT Latitude Longitude Course Direction KTS MPH feet Rate Location/Type
Mon 01:01:00 AM 44.8305 9.4397 148° Southeast  Level Estimated
Mon 01:02:00 AM 44.7502 9.5098 148° Southeast  Level Estimated
Mon 01:03:00 AM 44.6699 9.5796 148° Southeast  Level Estimated
Mon 01:04:00 AM 44.5896 9.6493 148° Southeast  Level Estimated
Mon 01:05:00 AM 44.5092 9.7188 148° Southeast  Level Estimated
Mon 01:06:00 AM 44.4288 9.7881 148° Southeast  Level Estimated
Mon 01:07:00 AM 44.3484 9.8572 148° Southeast  Level Estimated
Mon 01:07:33 AM 45.6710 8.5210 148° Southeast 279 321 7,300  Level FlightAware ADS-B
Mon 01:07:48 AM 45.6730 8.4940 276° West 279 321 8,100 3,800 Climbing FlightAware ADS-B
Mon 01:08:03 AM 45.6660 8.4670 250° West 273 314 9,200 3,200 Climbing FlightAware ADS-B
Mon 01:08:48 AM 45.6260 8.4100 225° Southwest 300 345 11,300 2,657 Climbing FlightAware ADS-B
Mon 01:09:13 AM 45.5900 8.4050 186° South 323 372 12,300 2,850 Climbing FlightAware ADS-B
Mon 01:09:28 AM 45.5690 8.4170 158° South 328 377 13,200 3,200 Climbing FlightAware ADS-B
Mon 01:09:43 AM 45.5520 8.4380 139° Southeast 338 389 13,900 2,400 Climbing FlightAware ADS-B
Mon 01:10:23 AM 45.5100 8.5100 130° Southeast 364 419 15,400 2,753 Climbing FlightAware ADS-B
Mon 01:11:08 AM 45.4630 8.5950 128° Southeast 361 415 17,800 2,000 Climbing FlightAware ADS-B
Mon 01:13:00 AM 45.3128 8.7359 147° Southeast  Level Estimated
Mon 01:14:00 AM 45.2323 8.8111 147° Southeast  Level Estimated
Mon 01:14:38 AM 45.2150 8.9660 147° Southeast 400 460 23,900  Level FlightAware ADS-B
Mon 01:15:18 AM 45.1570 9.0460 136° Southeast 417 480 25,000 2,025 Climbing FlightAware ADS-B
Mon 01:15:58 AM 45.1030 9.1210 136° Southeast 414 476 26,600 1,835 Climbing FlightAware ADS-B
Mon 01:16:43 AM 45.0410 9.2070 136° Southeast 427 491 27,600 1,412 Climbing FlightAware ADS-B
Mon 01:17:23 AM 44.9840 9.2850 136° Southeast 435 501 28,600 1,412 Climbing FlightAware ADS-B
Mon 01:18:08 AM 44.9170 9.3770 136° Southeast 444 511 29,600 1,341 Climbing FlightAware ADS-B
Mon 01:18:48 AM 44.8560 9.4600 136° Southeast 450 518 30,500 1,350 Climbing FlightAware ADS-B
Mon 01:19:28 AM 44.7980 9.5400 136° Southeast 455 524 31,400 1,425 Climbing FlightAware ADS-B
Mon 01:20:08 AM 44.7360 9.6250 136° Southeast 456 525 32,400 1,650 Climbing FlightAware ADS-B
Mon 01:20:48 AM 44.6770 9.7040 136° Southeast 451 519 33,600 1,471 Climbing FlightAware ADS-B
Mon 01:22:43 AM 44.5080 9.9320 136° Southeast 446 513 36,200 1,238 Climbing FlightAware ADS-B
Mon 01:23:28 AM 44.4420 10.0210 136° Southeast 448 516 36,900 533 Climbing FlightAware ADS-B
Mon 01:24:13 AM 44.3730 10.1120 137° Southeast 455 524 37,000 71 Climbing FlightAware ADS-B
Mon 01:24:53 AM 44.3090 10.1980 136° Southeast 458 527 37,000  Level FlightAware ADS-B
Mon 01:25:33 AM 44.2480 10.2790 136° Southeast 458 527 37,000  Level FlightAware ADS-B
Mon 01:26:18 AM 44.1790 10.3700 137° Southeast 458 527 37,000  Level FlightAware ADS-B
Mon 01:26:58 AM 44.1180 10.4520 136° Southeast 459 528 37,000 27 Level FlightAware ADS-B
Mon 01:29:00 AM 43.9470 10.5849 151° Southeast  Level Estimated
Mon 01:30:00 AM 43.8629 10.6500 151° Southeast  Level Estimated
Mon 01:31:00 AM 43.7787 10.7149 151° Southeast  Level Estimated
Mon 01:32:00 AM 43.6945 10.7796 151° Southeast  Level Estimated
Mon 01:33:00 AM 43.6102 10.8442 151° Southeast  Level Estimated
Mon 01:33:43 AM 43.4990 11.2600 151° Southeast 464 534 37,200  Level FlightAware ADS-B
Mon 01:34:23 AM 43.4330 11.3440 137° Southeast 457 526 38,100 988 Climbing FlightAware ADS-B
Mon 01:35:08 AM 43.3640 11.4330 137° Southeast 461 531 38,600 494 Climbing FlightAware ADS-B
Mon 01:35:48 AM 43.3000 11.5160 137° Southeast 466 536 38,800 300 Climbing FlightAware ADS-B
Mon 01:36:28 AM 43.2340 11.6010 137° Southeast 468 539 39,000 141 Climbing FlightAware ADS-B
Mon 01:37:13 AM 43.1630 11.6910 137° Southeast 470 541 39,000  Level FlightAware ADS-B
Mon 01:37:53 AM 43.0990 11.7730 137° Southeast 471 542 39,000  Level FlightAware ADS-B
Mon 01:38:38 AM 43.0260 11.8650 137° Southeast 471 542 39,000  Level FlightAware ADS-B
Mon 01:39:13 AM 42.9730 11.9330 137° Southeast 472 543 39,000  Level FlightAware ADS-B
Mon 01:39:58 AM 42.9010 12.0220 138° Southeast 472 543 39,000  Level FlightAware ADS-B
Mon 01:40:43 AM 42.8290 12.1130 137° Southeast 472 543 39,000  Level FlightAware ADS-B
Mon 01:41:23 AM 42.7650 12.1940 137° Southeast 472 543 39,000  Level FlightAware ADS-B
Mon 01:42:08 AM 42.6900 12.2870 138° Southeast 470 541 39,000  Level FlightAware ADS-B
Mon 01:42:48 AM 42.6300 12.3610 138° Southeast 471 542 39,000  Level FlightAware ADS-B
Mon 01:43:33 AM 42.5540 12.4550 138° Southeast 472 543 39,000  Level FlightAware ADS-B
Mon 01:44:13 AM 42.4930 12.5320 137° Southeast 472 543 39,000  Level FlightAware ADS-B
Mon 01:44:53 AM 42.4270 12.6130 138° Southeast 472 543 39,000  Level FlightAware ADS-B
Mon 01:45:38 AM 42.3560 12.7000 138° Southeast 472 543 39,000  Level FlightAware ADS-B
Mon 01:46:18 AM 42.2880 12.7730 142° Southeast 469 540 39,000  Level FlightAware ADS-B
Mon 01:47:03 AM 42.2050 12.8510 145° Southeast 470 541 39,000  Level FlightAware ADS-B
Mon 01:47:43 AM 42.1340 12.9180 145° Southeast 470 541 39,000  Level FlightAware ADS-B
Mon 01:48:23 AM 42.0640 12.9840 145° Southeast 470 541 39,000  Level FlightAware ADS-B
Mon 01:49:08 AM 41.9880 13.0550 145° Southeast 471 542 39,000  Level FlightAware ADS-B
Mon 01:49:43 AM 41.9240 13.1150 145° Southeast 470 541 39,000  Level FlightAware ADS-B
Mon 01:50:33 AM 41.8290 13.2040 145° Southeast 470 541 39,000  Level FlightAware ADS-B
Mon 01:51:13 AM 41.7570 13.2710 145° Southeast 470 541 39,000  Level FlightAware ADS-B
Mon 01:51:53 AM 41.6880 13.3340 146° Southeast 470 541 39,000  Level FlightAware ADS-B
Mon 01:52:38 AM 41.6080 13.4080 145° Southeast 470 541 39,000  Level FlightAware ADS-B
Mon 01:53:18 AM 41.5360 13.4740 146° Southeast 470 541 39,000  Level FlightAware ADS-B
Mon 01:54:03 AM 41.4550 13.5490 145° Southeast 468 539 39,000  Level FlightAware ADS-B
Mon 01:54:43 AM 41.3830 13.6150 145° Southeast 469 540 39,000  Level FlightAware ADS-B
Mon 01:55:23 AM 41.3110 13.6810 145° Southeast 470 541 39,000  Level FlightAware ADS-B
Mon 01:56:08 AM 41.2320 13.7500 147° Southeast 468 539 39,000  Level FlightAware ADS-B
Mon 01:56:48 AM 41.1550 13.8050 152° Southeast 467 537 39,000  Level FlightAware ADS-B
Mon 01:57:28 AM 41.0790 13.8600 151° Southeast 468 539 39,000  Level FlightAware ADS-B
Mon 01:58:13 AM 40.9940 13.9200 152° Southeast 468 539 39,000  Level FlightAware ADS-B
Mon 01:58:53 AM 40.9160 13.9760 152° Southeast 468 539 39,000  Level FlightAware ADS-B
Mon 01:59:38 AM 40.8320 14.0360 152° Southeast 470 541 39,000  Level FlightAware ADS-B
Mon 02:00:18 AM 40.7540 14.0910 152° Southeast 471 542 39,000  Level FlightAware ADS-B
Mon 02:01:03 AM 40.6660 14.1530 152° Southeast 471 542 39,000  Level FlightAware ADS-B
Mon 02:01:43 AM 40.5930 14.2050 152° Southeast 472 543 39,000  Level FlightAware ADS-B
Mon 02:02:23 AM 40.5130 14.2610 152° Southeast 472 543 39,000  Level FlightAware ADS-B
Mon 02:03:08 AM 40.4280 14.3210 152° Southeast 473 544 39,000  Level FlightAware ADS-B
Mon 02:03:48 AM 40.3520 14.3740 152° Southeast 474 545 39,000  Level FlightAware ADS-B
Mon 02:04:33 AM 40.2630 14.4360 152° Southeast 475 547 39,000  Level FlightAware ADS-B
Mon 02:05:13 AM 40.1850 14.4900 152° Southeast 475 547 39,000  Level FlightAware ADS-B
Mon 02:05:53 AM 40.1050 14.5450 152° Southeast 474 545 39,000  Level FlightAware ADS-B
Mon 02:06:38 AM 40.0220 14.6030 152° Southeast 473 544 39,000  Level FlightAware ADS-B
Mon 02:07:18 AM 39.9440 14.6560 152° Southeast 472 543 39,000  Level FlightAware ADS-B
Mon 02:08:03 AM 39.8520 14.7070 157° South 470 541 39,000  Level FlightAware ADS-B
Mon 02:08:43 AM 39.7710 14.7510 157° South 471 542 39,000  Level FlightAware ADS-B
Mon 02:09:23 AM 39.6910 14.7930 158° South 470 541 39,000  Level FlightAware ADS-B
Mon 02:10:08 AM 39.6030 14.8410 157° South 469 540 39,000  Level FlightAware ADS-B
Mon 02:11:03 AM 39.4940 14.9000 157° South 469 540 39,000  Level FlightAware ADS-B
Mon 02:11:38 AM 39.4290 14.9350 157° South 469 540 39,000  Level FlightAware ADS-B
Mon 02:12:23 AM 39.3330 14.9870 157° South 470 541 39,000  Level FlightAware ADS-B
Mon 02:13:23 AM 39.2190 15.0470 158° South 472 543 39,000 -343 Level FlightAware ADS-B
Mon 02:14:08 AM 39.1270 15.0950 158° South 472 543 38,400 -943 Descending FlightAware ADS-B
Mon 02:15:43 AM 38.9310 15.2000 157° South 476 548 36,800 -1,022 Descending FlightAware ADS-B
Mon 02:16:23 AM 38.8460 15.2450 158° South 481 554 36,100 -1,835 Descending FlightAware ADS-B
Mon 02:17:08 AM 38.7500 15.2950 158° South 485 558 34,200 -2,682 Descending FlightAware ADS-B
Mon 02:17:48 AM 38.6680 15.3380 158° South 482 555 32,300 -2,040 Descending FlightAware ADS-B
Mon 02:18:48 AM 38.5550 15.3970 158° South 471 542 30,800 -2,520 Descending FlightAware ADS-B
Mon 02:19:28 AM 38.4690 15.4420 158° South 486 559 28,100 -3,675 Descending FlightAware ADS-B
Mon 02:20:08 AM 38.3880 15.4840 158° South 486 559 25,900 -3,529 Descending FlightAware ADS-B
Mon 02:20:53 AM 38.2880 15.5360 158° South 478 550 23,100 -3,600 Descending FlightAware ADS-B
Mon 02:21:33 AM 38.2050 15.5790 158° South 473 544 20,800 -2,800 Descending FlightAware ADS-B
Mon 02:22:08 AM 38.1420 15.6120 158° South 437 503 19,600 -2,842 Descending FlightAware ADS-B
Mon 02:23:08 AM 38.0320 15.6650 159° South 409 471 16,300 -2,914 Descending FlightAware ADS-B
Mon 02:23:53 AM 37.9580 15.6960 162° South 375 432 14,500 -1,875 Descending FlightAware ADS-B
Mon 02:24:28 AM 37.8960 15.7230 161° South 345 397 13,800 -1,733 Descending FlightAware ADS-B
Mon 02:25:23 AM 37.8130 15.7590 161° South 343 395 11,900 -1,255 Descending FlightAware ADS-B
Mon 02:26:18 AM 37.7350 15.7920 161° South 294 338 11,500 -571 Descending FlightAware ADS-B
Mon 02:27:08 AM 37.6740 15.8180 161° South 259 298 10,900 -857 Descending FlightAware ADS-B
Mon 02:28:03 AM 37.6090 15.8450 162° South 264 304 10,000 -600 Descending FlightAware ADS-B
Mon 02:28:38 AM 37.5750 15.8290 200° South 228 262 10,000  Level FlightAware ADS-B
Mon 02:29:13 AM 37.5650 15.7900 252° West 217 250 10,000  Level FlightAware ADS-B
Mon 02:30:23 AM 37.5520 15.6960 260° West 223 257 10,000 -240 Level FlightAware ADS-B
Mon 02:30:53 AM 37.5470 15.6590 260° West 222 255 9,600 -1,309 Descending FlightAware ADS-B
Mon 02:31:18 AM 37.5420 15.6250 260° West 231 266 8,800 -1,964 Descending FlightAware ADS-B
Mon 02:31:48 AM 37.5370 15.5850 261° West 230 265 7,800 -1,700 Descending FlightAware ADS-B
Mon 02:32:18 AM 37.5320 15.5490 260° West 224 258 7,100 -1,543 Descending FlightAware ADS-B
Mon 02:32:23 AM 37.5310 15.5400 262° West 223 257 6,900 -1,650 Descending FlightAware ADS-B
Mon 02:32:58 AM 37.5240 15.4950 259° West 212 244 6,000 -1,418 Descending FlightAware ADS-B
Mon 02:33:18 AM 37.5210 15.4730 260° West 196 226 5,600 -982 Descending FlightAware ADS-B
Mon 02:33:53 AM 37.5170 15.4370 262° West 177 204 5,100 -1,000 Descending FlightAware ADS-B
Mon 02:34:18 AM 37.5130 15.4090 260° West 158 182 4,600 -600 Descending FlightAware ADS-B
Mon 02:34:43 AM 37.5100 15.3890 259° West 158 182 4,600  Level FlightAware ADS-B
Mon 02:37:00 AM 37.4752 15.1289 261° West  Level Estimated
Mon 02:38:00 AM 37.4668 15.0664 260° West  Level Estimated
Mon 02:39:00 AM 37.4668 15.0664 North  Level Estimated
Mon 02:40:00 AM 37.4668 15.0664 North  Level Estimated
Mon 02:41:00 AM 37.4668 15.0664 North  Level Estimated
Mon 02:42:00 AM 37.4668 15.0664 North  Level Estimated
Mon 02:43:00 AM 37.4668 15.0664 North  Level Estimated
Mon 02:44:00 AM 37.4668 15.0664 North  Level Estimated
Mon 02:45:00 AM 37.4668 15.0664 North  Level Estimated
Mon 02:46:00 AM 37.4668 15.0664 North  Level Estimated
Mon 02:47:00 AM 37.4668 15.0664 North  Level Estimated
Mon 02:48:00 AM 37.4668 15.0664 North  Level Estimated
Mon 02:49:00 AM 37.4668 15.0664 North  Level Estimated
Mon 02:50:00 AM 37.4668 15.0664 North  Level Estimated

Login

Don't have an account? Register now (free) for customized features, flight alerts, and more!